Time;durP1;ratioP1;P1;durP2;ratioP2;P2;SDS_P1;SDS_P2;PMS_P1;PMS_P2;Temp;Humidity;BMP_temperature;BMP_pressure;BME280_temperature;BME280_humidity;BME280_pressure;Samples;Min_cycle;Max_cycle;Signal;HPM_P1;HPM_P2
2023/02/03 00:01:00;;;;;;;1999.90;999.90;;;9.20;99.90;;;;;;5052910;28;20241;-70
2023/02/03 00:03:26;;;;;;;1999.90;999.90;;;9.30;99.90;;;;;;5052997;28;20173;-70
2023/02/03 00:05:53;;;;;;;1999.90;999.90;;;9.30;99.90;;;;;;5053116;28;20185;-70
2023/02/03 00:08:19;;;;;;;1999.90;999.90;;;9.30;99.90;;;;;;5053029;28;20436;-71
2023/02/03 00:10:45;;;;;;;1999.90;999.90;;;9.30;99.90;;;;;;5053190;28;20418;-71
2023/02/03 00:13:11;;;;;;;1999.90;999.90;;;9.30;99.90;;;;;;5052901;28;20259;-71
2023/02/03 00:15:36;;;;;;;1999.90;999.90;;;9.30;99.90;;;;;;5052525;28;20432;-70
2023/02/03 00:18:02;;;;;;;1999.90;999.90;;;9.30;99.90;;;;;;5052763;28;20238;-70
2023/02/03 00:20:28;;;;;;;1999.90;999.90;;;9.30;99.90;;;;;;5053754;28;20189;-70
2023/02/03 00:22:53;;;;;;;1999.90;999.90;;;9.30;99.90;;;;;;5053422;28;20166;-71
2023/02/03 00:25:20;;;;;;;1999.90;999.90;;;9.30;99.90;;;;;;5053065;28;20227;-70
2023/02/03 00:27:46;;;;;;;1999.90;999.90;;;9.40;99.90;;;;;;5053059;28;20173;-70
2023/02/03 00:30:12;;;;;;;1999.90;999.90;;;9.30;99.90;;;;;;5053646;28;20451;-70
2023/02/03 00:32:37;;;;;;;1999.90;999.90;;;9.40;99.90;;;;;;5053888;28;20206;-70
2023/02/03 00:35:03;;;;;;;1999.90;999.90;;;9.30;99.90;;;;;;5054027;28;20398;-70
2023/02/03 00:37:29;;;;;;;1999.90;999.90;;;9.30;99.90;;;;;;5053298;28;20179;-70
2023/02/03 00:39:55;;;;;;;1999.90;999.90;;;9.30;99.90;;;;;;5053837;28;20431;-70
2023/02/03 00:42:20;;;;;;;1999.90;999.90;;;9.30;99.90;;;;;;5054068;28;20172;-70
2023/02/03 00:44:46;;;;;;;1999.90;999.90;;;9.30;99.90;;;;;;5054377;28;20636;-71
2023/02/03 00:47:11;;;;;;;1999.90;999.90;;;9.30;99.90;;;;;;5053131;28;20169;-70
2023/02/03 00:49:37;;;;;;;1999.90;999.90;;;9.20;99.90;;;;;;5053512;28;20193;-70
2023/02/03 00:52:03;;;;;;;1999.90;999.90;;;9.20;99.90;;;;;;5055322;28;20246;-70
2023/02/03 00:54:28;;;;;;;1999.90;999.90;;;9.30;99.90;;;;;;5055564;28;20647;-70
2023/02/03 00:56:54;;;;;;;1999.90;999.90;;;9.30;99.90;;;;;;5054800;28;20404;-70
2023/02/03 00:59:19;;;;;;;1999.90;999.90;;;9.30;99.90;;;;;;5055210;28;20191;-70
2023/02/03 01:01:45;;;;;;;1999.90;999.90;;;9.20;99.90;;;;;;5054638;28;20260;-70
2023/02/03 01:04:10;;;;;;;1999.90;999.90;;;9.20;99.90;;;;;;5055228;28;20165;-70
2023/02/03 01:06:36;;;;;;;1999.90;999.90;;;9.20;99.90;;;;;;5054863;28;20234;-70
2023/02/03 01:09:02;;;;;;;1999.90;999.90;;;9.30;99.90;;;;;;5054968;28;20560;-70
2023/02/03 01:11:28;;;;;;;1999.90;999.90;;;9.40;99.90;;;;;;5054638;28;20194;-70
2023/02/03 01:13:55;;;;;;;1999.90;999.90;;;9.40;99.90;;;;;;5055366;28;20520;-70
2023/02/03 01:16:22;;;;;;;1999.90;999.90;;;9.40;99.90;;;;;;5055345;28;20177;-70
2023/02/03 01:18:49;;;;;;;1999.90;999.90;;;9.30;99.90;;;;;;5055176;28;20932;-70
2023/02/03 01:21:20;;;;;;;1999.90;999.90;;;9.40;99.90;;;;;;5053849;28;20797;-70
2023/02/03 01:23:46;;;;;;;1999.90;999.90;;;9.40;99.90;;;;;;5054456;28;20454;-70
2023/02/03 01:26:17;;;;;;;1999.90;999.90;;;9.40;99.90;;;;;;5054517;28;20412;-70
2023/02/03 01:28:43;;;;;;;1999.90;999.90;;;9.40;99.90;;;;;;5054537;28;20837;-70
2023/02/03 01:31:14;;;;;;;1999.90;999.90;;;9.40;99.90;;;;;;5054685;28;20450;-70
2023/02/03 01:33:40;;;;;;;1999.90;999.90;;;9.40;99.90;;;;;;5054469;28;20422;-70
2023/02/03 01:36:09;;;;;;;1999.90;999.90;;;9.40;99.90;;;;;;5054449;28;20414;-70
2023/02/03 01:38:36;;;;;;;1999.90;999.90;;;9.40;99.90;;;;;;5054607;28;20433;-70
2023/02/03 01:41:04;;;;;;;1999.90;999.90;;;9.40;99.90;;;;;;5054415;28;20413;-70
2023/02/03 01:43:36;;;;;;;1999.90;999.90;;;9.50;99.90;;;;;;5055072;28;20401;-70
2023/02/03 01:46:19;;;;;;;1999.90;999.90;;;9.40;99.90;;;;;;5054204;28;20757;-70
2023/02/03 01:48:45;;;;;;;1999.90;999.90;;;9.40;99.90;;;;;;5054113;28;20450;-70
2023/02/03 01:51:11;;;;;;;1999.90;999.90;;;9.40;99.90;;;;;;5053491;28;20945;-70
2023/02/03 01:53:38;;;;;;;1999.90;999.90;;;9.40;99.90;;;;;;5053700;28;20194;-70
2023/02/03 01:56:04;;;;;;;1999.90;999.90;;;9.40;99.90;;;;;;5054447;28;20164;-70
2023/02/03 01:58:34;;;;;;;1999.90;999.90;;;9.40;99.90;;;;;;5056512;28;20423;-70
2023/02/03 02:01:00;;;;;;;1999.90;999.90;;;9.40;99.90;;;;;;5057599;28;20753;-70
2023/02/03 02:03:37;;;;;;;1999.90;999.90;;;9.50;99.90;;;;;;5058064;28;20411;-70
2023/02/03 02:06:13;;;;;;;1999.90;999.90;;;9.30;99.90;;;;;;5057632;28;20175;-70
2023/02/03 02:08:41;;;;;;;1999.90;999.90;;;9.50;99.90;;;;;;5057577;28;20463;-70
2023/02/03 02:11:07;;;;;;;1999.90;999.90;;;9.40;99.90;;;;;;5057781;28;20443;-70
2023/02/03 02:13:35;;;;;;;1999.90;999.90;;;9.30;99.90;;;;;;5057793;28;20423;-70
2023/02/03 02:16:30;;;;;;;1999.90;999.90;;;9.40;99.90;;;;;;5058157;28;20417;-70
2023/02/03 02:19:14;;;;;;;1999.90;999.90;;;9.40;99.90;;;;;;5057870;28;20428;-70
2023/02/03 02:22:00;;;;;;;1999.90;999.90;;;9.40;99.90;;;;;;5058268;28;20939;-70
2023/02/03 02:24:56;;;;;;;1999.90;999.90;;;9.30;99.90;;;;;;5057474;28;20421;-70
2023/02/03 02:27:59;;;;;;;1999.90;999.90;;;9.30;99.90;;;;;;5057193;28;20409;-70
2023/02/03 02:30:51;;;;;;;1999.90;999.90;;;9.30;99.90;;;;;;5056712;28;20432;-70
2023/02/03 02:33:32;;;;;;;1999.90;999.90;;;9.30;99.90;;;;;;5056943;28;20470;-70
2023/02/03 02:36:20;;;;;;;1999.90;999.90;;;9.40;99.90;;;;;;5056578;28;20459;-70
2023/02/03 02:38:53;;;;;;;1999.90;999.90;;;9.30;99.90;;;;;;5056278;28;20906;-70
2023/02/03 02:41:37;;;;;;;1999.90;999.90;;;9.40;99.90;;;;;;5057107;28;20434;-70
2023/02/03 02:44:02;;;;;;;1999.90;999.90;;;9.40;99.90;;;;;;5057518;28;20499;-70
2023/02/03 02:46:38;;;;;;;1999.90;999.90;;;9.40;99.90;;;;;;5056888;28;20839;-70
2023/02/03 02:49:27;;;;;;;1999.90;999.90;;;9.40;99.90;;;;;;5057195;28;20219;-70
2023/02/03 02:51:53;;;;;;;1999.90;999.90;;;9.40;99.90;;;;;;5057314;28;20455;-70
2023/02/03 02:54:22;;;;;;;1999.90;999.90;;;9.40;99.90;;;;;;5057138;28;20403;-70
2023/02/03 02:56:52;;;;;;;1999.90;999.90;;;9.40;99.90;;;;;;5058724;28;20406;-70
2023/02/03 02:59:18;;;;;;;1999.90;999.90;;;9.40;99.90;;;;;;5057997;28;20429;-70
2023/02/03 03:01:44;;;;;;;1999.90;999.90;;;9.30;99.90;;;;;;5057355;28;20502;-70
2023/02/03 03:04:13;;;;;;;1999.90;999.90;;;9.30;99.90;;;;;;5057032;28;20490;-70
2023/02/03 03:06:49;;;;;;;1999.90;999.90;;;9.40;99.90;;;;;;5057601;28;20178;-70
2023/02/03 03:09:26;;;;;;;1999.90;999.90;;;9.40;99.90;;;;;;5056600;28;20455;-70
2023/02/03 03:12:01;;;;;;;1999.90;999.90;;;9.40;99.90;;;;;;5057312;28;20447;-70
2023/02/03 03:14:30;;;;;;;1999.90;999.90;;;9.40;99.90;;;;;;5056652;28;20889;-70
2023/02/03 03:17:01;;;;;;;1999.90;999.90;;;9.40;99.90;;;;;;5056320;28;20414;-70
2023/02/03 03:19:33;;;;;;;1999.90;999.90;;;9.40;99.90;;;;;;5056477;28;20424;-70
2023/02/03 03:22:04;;;;;;;1999.90;999.90;;;9.40;99.90;;;;;;5056632;28;20416;-70
2023/02/03 03:24:40;;;;;;;1999.90;999.90;;;9.50;99.90;;;;;;5056648;28;20459;-70
2023/02/03 03:27:23;;;;;;;1999.90;999.90;;;9.40;99.90;;;;;;5055815;28;20449;-70
2023/02/03 03:30:09;;;;;;;1999.90;999.90;;;9.40;99.90;;;;;;5056158;28;20507;-70
2023/02/03 03:32:35;;;;;;;1999.90;999.90;;;9.40;99.90;;;;;;5056207;28;20816;-70
2023/02/03 03:35:02;;;;;;;1999.90;999.90;;;9.40;99.90;;;;;;5056128;28;20405;-70
2023/02/03 03:37:39;;;;;;;1999.90;999.90;;;9.40;99.90;;;;;;5055530;28;20442;-70
2023/02/03 03:40:11;;;;;;;1999.90;999.90;;;9.40;99.90;;;;;;5055525;28;20435;-70
2023/02/03 03:43:07;;;;;;;1999.90;999.90;;;9.40;99.90;;;;;;5053646;28;20434;-70
2023/02/03 03:45:54;;;;;;;1999.90;999.90;;;9.40;99.90;;;;;;5053406;28;20414;-70
2023/02/03 03:48:49;;;;;;;1999.90;999.90;;;9.40;99.90;;;;;;5053599;28;20422;-70
2023/02/03 03:51:43;;;;;;;1999.90;999.90;;;9.30;99.90;;;;;;5041764;28;20464;-70
2023/02/03 03:54:13;;;;;;;1999.90;999.90;;;9.30;99.90;;;;;;5053273;28;20403;-70
2023/02/03 03:56:51;;;;;;;1999.90;999.90;;;9.40;99.90;;;;;;5053268;28;20408;-70
2023/02/03 03:59:20;;;;;;;1999.90;999.90;;;9.30;99.90;;;;;;5053262;28;20951;-70
2023/02/03 04:01:48;;;;;;;1999.90;999.90;;;9.30;99.90;;;;;;5053247;28;20417;-69
2023/02/03 04:04:15;;;;;;;1999.90;999.90;;;9.30;99.90;;;;;;5053138;28;20405;-69
2023/02/03 04:06:40;;;;;;;1999.90;999.90;;;9.30;99.90;;;;;;5052958;28;20416;-69
2023/02/03 04:09:06;;;;;;;1999.90;999.90;;;9.40;99.90;;;;;;5052999;28;20786;-69
2023/02/03 04:14:16;;;;;;;1999.90;999.90;;;9.30;99.90;;;;;;5053138;28;20217;-69
2023/02/03 04:16:42;;;;;;;1999.90;999.90;;;9.40;99.90;;;;;;5052837;28;20439;-69
2023/02/03 04:19:08;;;;;;;1999.90;999.90;;;9.40;99.90;;;;;;5052658;28;20430;-69
2023/02/03 04:21:33;;;;;;;1999.90;999.90;;;9.40;99.90;;;;;;5051777;28;20251;-70
2023/02/03 04:23:59;;;;;;;1999.90;999.90;;;9.40;99.90;;;;;;5052607;28;20722;-69
2023/02/03 04:26:25;;;;;;;1999.90;999.90;;;9.40;99.90;;;;;;5052564;28;20537;-69
2023/02/03 04:28:50;;;;;;;1999.90;999.90;;;9.30;99.90;;;;;;5052403;28;20685;-69
2023/02/03 04:31:16;;;;;;;1999.90;999.90;;;9.40;99.90;;;;;;5052436;28;20194;-69
2023/02/03 04:33:41;;;;;;;1999.90;999.90;;;9.30;99.90;;;;;;5052450;28;20679;-69
2023/02/03 04:36:08;;;;;;;1999.90;999.90;;;9.30;99.90;;;;;;5050685;28;20168;-69
2023/02/03 04:38:33;;;;;;;1999.90;999.90;;;9.40;99.90;;;;;;5032562;28;20198;-69
2023/02/03 04:40:59;;;;;;;1999.90;999.90;;;9.30;99.90;;;;;;5032325;28;20398;-69
2023/02/03 04:43:25;;;;;;;1999.90;999.90;;;9.30;99.90;;;;;;5032767;28;20164;-69
2023/02/03 04:45:50;;;;;;;1999.90;999.90;;;9.30;99.90;;;;;;5032350;28;20194;-69
2023/02/03 04:48:16;;;;;;;1999.90;999.90;;;9.30;99.90;;;;;;5032137;28;20183;-69
2023/02/03 04:50:41;;;;;;;1999.90;999.90;;;9.40;99.90;;;;;;5033105;28;20527;-70
2023/02/03 04:53:07;;;;;;;1999.90;999.90;;;9.30;99.90;;;;;;5034980;28;20195;-70
2023/02/03 04:55:32;;;;;;;1999.90;999.90;;;9.30;99.90;;;;;;5034847;28;20259;-70
2023/02/03 04:57:59;;;;;;;1999.90;999.90;;;9.40;99.90;;;;;;5034480;28;20257;-70
2023/02/03 05:00:26;;;;;;;1999.90;999.90;;;9.40;99.90;;;;;;5034722;28;20174;-70
2023/02/03 05:02:52;;;;;;;1999.90;999.90;;;9.40;99.90;;;;;;5034423;28;20440;-70
2023/02/03 05:05:19;;;;;;;1999.90;999.90;;;9.40;99.90;;;;;;5034868;28;20415;-70
2023/02/03 05:07:45;;;;;;;1999.90;999.90;;;9.40;99.90;;;;;;5035092;28;20171;-70
2023/02/03 05:10:10;;;;;;;1999.90;999.90;;;9.30;99.90;;;;;;5034600;28;21021;-70
2023/02/03 05:12:36;;;;;;;1999.90;999.90;;;9.50;99.90;;;;;;5034918;28;20239;-70
2023/02/03 05:15:02;;;;;;;1999.90;999.90;;;9.40;99.90;;;;;;5035164;28;20170;-70
2023/02/03 05:17:27;;;;;;;1999.90;999.90;;;9.40;99.90;;;;;;5034826;28;20649;-70
2023/02/03 05:19:53;;;;;;;1999.90;999.90;;;9.30;99.90;;;;;;5035204;28;20264;-70
2023/02/03 05:22:18;;;;;;;1999.90;999.90;;;9.30;99.90;;;;;;5034555;28;20632;-70
2023/02/03 05:24:44;;;;;;;1999.90;999.90;;;9.30;99.90;;;;;;5035052;28;20169;-70
2023/02/03 05:27:10;;;;;;;1999.90;999.90;;;9.30;99.90;;;;;;5035581;28;20168;-70
2023/02/03 05:29:35;;;;;;;1999.90;999.90;;;9.30;99.90;;;;;;5034829;28;20638;-70
2023/02/03 05:32:01;;;;;;;1999.90;999.90;;;9.30;99.90;;;;;;5035916;28;20199;-70
2023/02/03 05:34:26;;;;;;;1999.90;999.90;;;9.40;99.90;;;;;;5038942;28;20846;-70
2023/02/03 05:36:52;;;;;;;1999.90;999.90;;;9.30;99.90;;;;;;5038932;28;20197;-70
2023/02/03 05:39:18;;;;;;;1999.90;999.90;;;9.30;99.90;;;;;;5036568;28;20186;-69
2023/02/03 05:41:52;;;;;;;1999.90;999.90;;;9.30;99.90;;;;;;5035729;28;20166;-69
2023/02/03 05:44:20;;;;;;;1999.90;999.90;;;9.30;99.90;;;;;;5035778;28;20544;-69
2023/02/03 05:46:46;;;;;;;1999.90;999.90;;;9.30;99.90;;;;;;5035722;28;20911;-69
2023/02/03 05:49:12;;;;;;;1999.90;999.90;;;9.30;99.90;;;;;;5035657;28;20528;-69
2023/02/03 05:51:38;;;;;;;1999.90;999.90;;;9.30;99.90;;;;;;5035404;28;20477;-69
2023/02/03 05:54:05;;;;;;;1999.90;999.90;;;9.30;99.90;;;;;;5035888;28;20892;-69
2023/02/03 05:56:30;;;;;;;1999.90;999.90;;;9.30;99.90;;;;;;5035351;28;20891;-69
2023/02/03 05:58:56;;;;;;;1999.90;999.90;;;9.30;99.90;;;;;;5035377;28;20420;-69
2023/02/03 06:01:21;;;;;;;1999.90;999.90;;;9.30;99.90;;;;;;5035193;28;20732;-69
2023/02/03 06:03:47;;;;;;;1999.90;999.90;;;9.30;99.90;;;;;;5035284;28;20261;-69
2023/02/03 06:06:14;;;;;;;1999.90;999.90;;;9.30;99.90;;;;;;5035299;28;20174;-69
2023/02/03 06:08:39;;;;;;;1999.90;999.90;;;9.30;99.90;;;;;;5035147;28;20188;-69
2023/02/03 06:11:05;;;;;;;1999.90;999.90;;;9.30;99.90;;;;;;5034826;28;20409;-69
2023/02/03 06:13:30;;;;;;;1999.90;999.90;;;9.30;99.90;;;;;;5034858;28;20176;-69
2023/02/03 06:15:56;;;;;;;1999.90;999.90;;;9.30;99.90;;;;;;5034890;28;20170;-69
2023/02/03 06:18:22;;;;;;;1999.90;999.90;;;9.30;99.90;;;;;;5034740;28;20252;-69
2023/02/03 06:20:47;;;;;;;1999.90;999.90;;;9.30;99.90;;;;;;5034949;28;20177;-69
2023/02/03 06:23:13;;;;;;;1999.90;999.90;;;9.30;99.90;;;;;;5034917;28;20690;-70
2023/02/03 06:25:39;;;;;;;1999.90;999.90;;;9.30;99.90;;;;;;5034815;28;20184;-69
2023/02/03 06:28:04;;;;;;;1999.90;999.90;;;9.30;99.90;;;;;;5034540;28;20527;-70
2023/02/03 06:30:30;;;;;;;1999.90;999.90;;;9.40;99.90;;;;;;5034360;28;20246;-69
2023/02/03 06:32:55;;;;;;;1999.90;999.90;;;9.30;99.90;;;;;;5034701;28;20199;-69
2023/02/03 06:35:21;;;;;;;1999.90;999.90;;;9.30;99.90;;;;;;5034593;28;20167;-69
2023/02/03 06:37:46;;;;;;;1999.90;999.90;;;9.30;99.90;;;;;;5034535;28;20171;-69
2023/02/03 06:40:12;;;;;;;1999.90;999.90;;;9.30;99.90;;;;;;5034430;28;20879;-69
2023/02/03 06:42:38;;;;;;;1999.90;999.90;;;9.40;99.90;;;;;;5034390;28;20174;-69
2023/02/03 06:45:04;;;;;;;1999.90;999.90;;;9.30;99.90;;;;;;5033349;28;20179;-69
2023/02/03 06:47:29;;;;;;;1999.90;999.90;;;9.30;99.90;;;;;;5034166;28;20171;-69
2023/02/03 06:49:55;;;;;;;1999.90;999.90;;;9.30;99.90;;;;;;5033962;28;20427;-70
2023/02/03 06:52:21;;;;;;;1999.90;999.90;;;9.30;99.90;;;;;;5033739;28;20202;-69
2023/02/03 06:54:46;;;;;;;1999.90;999.90;;;9.30;99.90;;;;;;5034212;28;20161;-69
2023/02/03 06:57:12;;;;;;;1999.90;999.90;;;9.30;99.90;;;;;;5034051;28;20195;-69
2023/02/03 06:59:37;;;;;;;1999.90;999.90;;;9.30;99.90;;;;;;5033436;28;20222;-69
2023/02/03 07:02:03;;;;;;;1999.90;999.90;;;9.30;99.90;;;;;;5034154;28;20189;-69
2023/02/03 07:04:29;;;;;;;1999.90;999.90;;;9.30;99.90;;;;;;5034148;28;20232;-69
2023/02/03 07:06:56;;;;;;;1999.90;999.90;;;9.30;99.90;;;;;;5034325;28;20576;-69
2023/02/03 07:09:22;;;;;;;1999.90;999.90;;;9.30;99.90;;;;;;5034082;28;20189;-69
2023/02/03 07:11:47;;;;;;;1999.90;999.90;;;9.30;99.90;;;;;;5033866;28;20865;-69
2023/02/03 07:14:13;;;;;;;1999.90;999.90;;;9.30;99.90;;;;;;5033789;28;20412;-69
2023/02/03 07:16:39;;;;;;;1999.90;999.90;;;9.30;99.90;;;;;;5033787;28;20178;-69
2023/02/03 07:19:04;;;;;;;1999.90;999.90;;;9.30;99.90;;;;;;5033614;28;20185;-69
2023/02/03 07:21:30;;;;;;;1999.90;999.90;;;9.40;99.90;;;;;;5033738;28;20184;-69
2023/02/03 07:23:56;;;;;;;1999.90;999.90;;;9.30;99.90;;;;;;5015935;28;20212;-69
2023/02/03 07:26:24;;;;;;;1999.90;999.90;;;9.30;99.90;;;;;;5033459;28;20504;-70
2023/02/03 07:28:51;;;;;;;1999.90;999.90;;;9.30;99.90;;;;;;5033295;28;20441;-69
2023/02/03 07:31:16;;;;;;;1999.90;999.90;;;9.30;99.90;;;;;;5033374;28;20432;-69
2023/02/03 07:33:42;;;;;;;1999.90;999.90;;;9.30;99.90;;;;;;5033479;28;20851;-69
2023/02/03 07:36:09;;;;;;;1999.90;999.90;;;9.30;99.90;;;;;;5033336;28;20167;-69
2023/02/03 07:38:36;;;;;;;1999.90;999.90;;;9.40;99.90;;;;;;5033283;28;20272;-69
2023/02/03 07:41:03;;;;;;;1999.90;999.90;;;9.40;99.90;;;;;;5033154;28;20823;-69
2023/02/03 07:43:29;;;;;;;1999.90;999.90;;;9.40;99.90;;;;;;5033261;28;20915;-69
2023/02/03 07:45:54;;;;;;;1999.90;999.90;;;9.40;99.90;;;;;;5033105;28;20494;-70
2023/02/03 07:48:20;;;;;;;1999.90;999.90;;;9.50;99.90;;;;;;5033379;28;20185;-69
2023/02/03 07:50:47;;;;;;;1999.90;999.90;;;9.50;99.90;;;;;;5033637;28;20177;-69
2023/02/03 07:53:13;;;;;;;1999.90;999.90;;;9.50;99.90;;;;;;5033004;28;20574;-69
2023/02/03 07:55:39;;;;;;;1999.90;999.90;;;9.50;99.90;;;;;;5032974;28;20409;-69
2023/02/03 07:58:05;;;;;;;1999.90;999.90;;;9.50;99.90;;;;;;5032911;28;20194;-70
2023/02/03 08:00:30;;;;;;;1999.90;999.90;;;9.50;99.90;;;;;;5032940;28;20410;-69
2023/02/03 08:02:56;;;;;;;1999.90;999.90;;;9.50;99.90;;;;;;5032973;28;20505;-70
2023/02/03 08:05:22;;;;;;;1999.90;999.90;;;9.50;99.90;;;;;;5033154;28;20175;-70
2023/02/03 08:07:47;;;;;;;1999.90;999.90;;;9.50;99.90;;;;;;5033043;28;20197;-69
2023/02/03 08:10:14;;;;;;;1999.90;999.90;;;9.50;99.90;;;;;;5032718;28;20199;-69
2023/02/03 08:12:41;;;;;;;1999.90;999.90;;;9.60;99.90;;;;;;5032868;28;20714;-69
2023/02/03 08:15:08;;;;;;;1999.90;999.90;;;9.60;99.90;;;;;;5032958;28;20462;-69
2023/02/03 08:17:34;;;;;;;1999.90;999.90;;;9.60;99.90;;;;;;5032765;28;20401;-70
2023/02/03 08:20:00;;;;;;;1999.90;999.90;;;9.60;99.90;;;;;;5032366;28;20446;-70
2023/02/03 08:22:25;;;;;;;1999.90;999.90;;;9.60;99.90;;;;;;5032684;28;20199;-70
2023/02/03 08:24:51;;;;;;;1999.90;999.90;;;9.60;99.90;;;;;;5032617;28;20170;-70
2023/02/03 08:27:19;;;;;;;1999.90;999.90;;;9.60;99.90;;;;;;5032498;28;20634;-70
2023/02/03 08:29:45;;;;;;;1999.90;999.90;;;9.60;99.90;;;;;;5032101;28;20271;-70
2023/02/03 08:32:18;;;;;;;1999.90;999.90;;;9.60;99.90;;;;;;5032407;28;20445;-70
2023/02/03 08:34:45;;;;;;;1999.90;999.90;;;9.60;99.90;;;;;;5032420;28;20446;-70
2023/02/03 08:37:12;;;;;;;1999.90;999.90;;;9.70;99.90;;;;;;5032393;28;20457;-70
2023/02/03 08:39:39;;;;;;;1999.90;999.90;;;9.70;99.90;;;;;;5031952;28;20439;-70
2023/02/03 08:42:05;;;;;;;1999.90;999.90;;;9.70;99.90;;;;;;5032264;28;20860;-70
2023/02/03 08:44:32;;;;;;;1999.90;999.90;;;9.60;99.90;;;;;;5032236;28;20447;-70
2023/02/03 08:46:59;;;;;;;1999.90;999.90;;;9.60;99.90;;;;;;5032065;28;20417;-70
2023/02/03 08:49:26;;;;;;;1999.90;999.90;;;9.60;99.90;;;;;;5032270;28;20426;-70
2023/02/03 08:51:52;;;;;;;1999.90;999.90;;;9.70;99.90;;;;;;5032068;28;20951;-70
2023/02/03 08:54:18;;;;;;;1999.90;999.90;;;9.60;99.90;;;;;;5032244;28;20402;-70
2023/02/03 08:56:44;;;;;;;1999.90;999.90;;;9.70;99.90;;;;;;5032264;28;20169;-70
2023/02/03 08:59:10;;;;;;;1999.90;999.90;;;9.60;99.90;;;;;;5032260;28;20796;-70
2023/02/03 09:01:36;;;;;;;1999.90;999.90;;;9.60;99.90;;;;;;5032089;28;20411;-70
2023/02/03 09:04:06;;;;;;;1999.90;999.90;;;9.50;99.90;;;;;;5032343;28;20409;-70
2023/02/03 09:06:31;;;;;;;1999.90;999.90;;;9.50;99.90;;;;;;5031979;28;20504;-70
2023/02/03 09:08:57;;;;;;;1999.90;999.90;;;9.60;99.90;;;;;;5031334;28;20463;-70
2023/02/03 09:11:22;;;;;;;1999.90;999.90;;;9.50;99.90;;;;;;5031660;28;20261;-70
2023/02/03 09:13:48;;;;;;;1999.90;999.90;;;9.60;99.90;;;;;;5032128;28;20648;-70
2023/02/03 09:16:16;;;;;;;1999.90;999.90;;;9.50;99.90;;;;;;5032389;28;20161;-70
2023/02/03 09:18:43;;;;;;;1999.90;999.90;;;9.60;99.90;;;;;;5032258;28;20504;-70
2023/02/03 09:21:10;;;;;;;1999.90;999.90;;;9.60;99.90;;;;;;5031795;28;20810;-70
2023/02/03 09:23:36;;;;;;;1999.90;999.90;;;9.60;99.90;;;;;;5032219;28;20400;-70
2023/02/03 09:26:03;;;;;;;1999.90;999.90;;;9.60;99.90;;;;;;5031904;28;20500;-70
2023/02/03 09:28:29;;;;;;;1999.90;999.90;;;9.60;99.90;;;;;;5031755;28;20513;-70
2023/02/03 09:31:02;;;;;;;1999.90;999.90;;;9.60;99.90;;;;;;5031700;28;20501;-70
2023/02/03 09:33:28;;;;;;;1999.90;999.90;;;9.60;99.90;;;;;;5031738;28;20469;-70
2023/02/03 09:35:55;;;;;;;1999.90;999.90;;;9.50;99.90;;;;;;5031749;28;20409;-70
2023/02/03 09:38:21;;;;;;;1999.90;999.90;;;9.60;99.90;;;;;;5031756;28;20671;-70
2023/02/03 09:40:57;;;;;;;1999.90;999.90;;;9.50;99.90;;;;;;5034022;28;20409;-71
2023/02/03 09:43:38;;;;;;;1999.90;999.90;;;9.60;99.90;;;;;;5034845;28;20397;-71
2023/02/03 09:46:18;;;;;;;1999.90;999.90;;;9.50;99.90;;;;;;5033904;28;21007;-71
2023/02/03 09:48:49;;;;;;;1999.90;999.90;;;9.50;99.90;;;;;;5034959;28;20419;-71
2023/02/03 09:51:31;;;;;;;1999.90;999.90;;;9.50;99.90;;;;;;5034318;28;20443;-71
2023/02/03 09:54:19;;;;;;;1999.90;999.90;;;9.40;99.90;;;;;;5032797;28;20461;-71
2023/02/03 09:56:51;;;;;;;1999.90;999.90;;;9.30;99.90;;;;;;5034160;28;20439;-71
2023/02/03 09:59:19;;;;;;;1999.90;999.90;;;9.30;99.90;;;;;;5033696;28;20841;-71
2023/02/03 10:02:00;;;;;;;1999.90;999.90;;;9.40;99.90;;;;;;5033471;28;20433;-71
2023/02/03 10:04:38;;;;;;;1999.90;999.90;;;9.30;99.90;;;;;;5033874;28;20543;-71
2023/02/03 10:07:25;;;;;;;1999.90;999.90;;;9.30;99.90;;;;;;5033742;28;20437;-71
2023/02/03 10:10:17;;;;;;;1999.90;999.90;;;9.20;99.90;;;;;;5033181;28;20508;-71
2023/02/03 10:12:57;;;;;;;1999.90;999.90;;;9.20;99.90;;;;;;5033901;28;20444;-70
2023/02/03 10:15:37;;;;;;;1999.90;999.90;;;9.10;99.90;;;;;;5030678;28;21057;-70
2023/02/03 10:18:12;;;;;;;1999.90;999.90;;;9.10;99.90;;;;;;5031729;28;20414;-70
2023/02/03 10:20:48;;;;;;;1999.90;999.90;;;9.10;99.90;;;;;;5031227;28;20417;-71
2023/02/03 10:23:23;;;;;;;1999.90;999.90;;;9.00;99.90;;;;;;5033967;28;20404;-71
2023/02/03 10:25:54;;;;;;;1999.90;999.90;;;9.00;99.90;;;;;;5034183;28;20412;-71
2023/02/03 10:28:23;;;;;;;1999.90;999.90;;;9.00;99.90;;;;;;5033975;28;20432;-71
2023/02/03 10:30:54;;;;;;;1999.90;999.90;;;8.90;99.90;;;;;;5033658;28;20933;-71
2023/02/03 10:33:20;;;;;;;1999.90;999.90;;;8.90;99.90;;;;;;5034011;28;20451;-70
2023/02/03 10:35:51;;;;;;;1999.90;999.90;;;8.80;99.90;;;;;;5036541;28;20474;-70
2023/02/03 10:38:43;;;;;;;1999.90;999.90;;;8.80;99.90;;;;;;5037352;28;20493;-70
2023/02/03 10:41:09;;;;;;;1999.90;999.90;;;8.80;99.90;;;;;;5037284;28;20383;-70
2023/02/03 10:43:47;;;;;;;1999.90;999.90;;;8.70;99.90;;;;;;5034463;28;20452;-71
2023/02/03 10:46:27;;;;;;;1999.90;999.90;;;8.70;99.90;;;;;;5034409;28;20200;-70
2023/02/03 10:48:52;;;;;;;1999.90;999.90;;;8.70;99.90;;;;;;5035171;28;20426;-70
2023/02/03 10:51:24;;;;;;;1999.90;999.90;;;8.70;99.90;;;;;;5034056;28;20470;-71
2023/02/03 10:53:52;;;;;;;1999.90;999.90;;;8.80;99.90;;;;;;5050648;28;20848;-71
2023/02/03 10:56:38;;;;;;;1999.90;999.90;;;8.80;99.90;;;;;;5072524;28;20772;-71
2023/02/03 10:59:06;;;;;;;1999.90;999.90;;;8.70;99.90;;;;;;5062233;28;20525;-70
2023/02/03 11:01:41;;;;;;;1999.90;999.90;;;8.70;99.90;;;;;;5048814;28;20912;-69
2023/02/03 11:04:25;;;;;;;1999.90;999.90;;;8.70;99.90;;;;;;5050543;28;20673;-69
2023/02/03 11:06:56;;;;;;;1999.90;999.90;;;8.80;99.90;;;;;;5033189;28;20404;-70
2023/02/03 11:09:48;;;;;;;1999.90;999.90;;;8.80;99.90;;;;;;5034357;28;20477;-70
2023/02/03 11:12:15;;;;;;;1999.90;999.90;;;8.80;99.90;;;;;;5037016;28;20462;-70
2023/02/03 11:14:46;;;;;;;1999.90;999.90;;;8.90;99.90;;;;;;5033006;28;20416;-70
2023/02/03 11:17:25;;;;;;;1999.90;999.90;;;8.90;99.90;;;;;;5033289;28;20486;-70
2023/02/03 11:19:53;;;;;;;1999.90;999.90;;;8.90;99.90;;;;;;5032033;28;20495;-70
2023/02/03 11:22:30;;;;;;;1999.90;999.90;;;9.00;99.90;;;;;;5032416;28;20410;-70
2023/02/03 11:24:56;;;;;;;1999.90;999.90;;;8.90;99.90;;;;;;5033264;28;20464;-70
2023/02/03 11:27:24;;;;;;;1999.90;999.90;;;9.00;99.90;;;;;;5042027;28;20414;-70
2023/02/03 11:30:05;;;;;;;1999.90;999.90;;;9.20;99.90;;;;;;5042937;28;20444;-70
2023/02/03 11:32:40;;;;;;;1999.90;999.90;;;9.10;99.90;;;;;;5032338;28;20474;-70
2023/02/03 11:35:26;;;;;;;1999.90;999.90;;;9.10;99.90;;;;;;5032946;28;20401;-71
2023/02/03 11:37:54;;;;;;;1999.90;999.90;;;9.20;99.90;;;;;;5032458;28;20463;-72
2023/02/03 11:40:19;;;;;;;1999.90;999.90;;;9.30;99.90;;;;;;5032585;28;20771;-70
2023/02/03 11:42:48;;;;;;;1999.90;999.90;;;9.30;99.90;;;;;;5032007;28;20418;-70
2023/02/03 11:45:23;;;;;;;1999.90;999.90;;;9.30;99.90;;;;;;5031820;28;20162;-70
2023/02/03 11:48:09;;;;;;;1999.90;999.90;;;9.40;99.90;;;;;;5032470;28;20493;-70
2023/02/03 11:50:57;;;;;;;1999.90;999.90;;;9.40;99.90;;;;;;5032315;28;20805;-70
2023/02/03 11:53:33;;;;;;;1999.90;999.90;;;9.40;99.90;;;;;;5031626;28;21133;-70
2023/02/03 11:55:58;;;;;;;1999.90;999.90;;;9.50;99.90;;;;;;5032365;28;20431;-70
2023/02/03 11:58:34;;;;;;;1999.90;999.90;;;9.60;99.90;;;;;;5032488;28;20758;-70
2023/02/03 12:01:08;;;;;;;1999.90;999.90;;;9.50;99.90;;;;;;5037586;28;20173;-70
2023/02/03 12:03:52;;;;;;;1999.90;999.90;;;9.60;99.90;;;;;;5056390;28;20974;-70
2023/02/03 12:06:23;;;;;;;1999.90;999.90;;;9.60;99.90;;;;;;5031927;28;20388;-70
2023/02/03 12:09:46;;;;;;;1999.90;999.90;;;9.60;99.90;;;;;;5032274;28;20421;-70
2023/02/03 12:12:26;;;;;;;1999.90;999.90;;;9.70;99.90;;;;;;4951801;29;20456;-70
2023/02/03 12:15:23;;;;;;;1999.90;999.90;;;9.70;99.90;;;;;;4950897;29;20423;-70
2023/02/03 12:18:18;;;;;;;1999.90;999.90;;;9.70;99.90;;;;;;5018949;28;20834;-70
2023/02/03 12:21:05;;;;;;;1999.90;999.90;;;9.80;99.90;;;;;;5031072;28;20417;-70
2023/02/03 12:23:51;;;;;;;1999.90;999.90;;;9.80;99.90;;;;;;5032014;28;20438;-70
2023/02/03 12:26:28;;;;;;;1999.90;999.90;;;9.80;99.90;;;;;;5032357;28;20775;-70